createdAt,value
2023-03-14T00:01:36.757Z,0.63
2023-03-14T00:04:19.524Z,0.70
2023-03-14T00:07:02.389Z,0.70
2023-03-14T00:09:46.797Z,0.60
2023-03-14T00:12:29.709Z,0.70
2023-03-14T00:15:13.166Z,0.70
2023-03-14T00:17:55.917Z,0.50
2023-03-14T00:20:38.718Z,0.80
2023-03-14T00:23:21.704Z,0.73
2023-03-14T00:26:08.398Z,0.80
2023-03-14T00:28:54.188Z,0.73
2023-03-14T00:31:37.156Z,0.60
2023-03-14T00:34:19.971Z,0.50
2023-03-14T00:37:02.826Z,0.63
2023-03-14T00:39:45.953Z,0.70
2023-03-14T00:42:30.172Z,0.65
2023-03-14T00:45:14.496Z,0.70
2023-03-14T00:47:57.270Z,0.70
2023-03-14T00:50:41.110Z,0.50
2023-03-14T00:53:24.136Z,0.40
2023-03-14T00:56:09.820Z,0.70
2023-03-14T00:58:57.463Z,0.60
2023-03-14T01:01:41.240Z,0.70
2023-03-14T01:04:24.063Z,0.70
2023-03-14T01:07:07.180Z,0.60
2023-03-14T01:09:53.458Z,0.52
2023-03-14T01:12:36.295Z,0.70
2023-03-14T01:15:21.071Z,0.68
2023-03-14T01:18:04.441Z,0.60
2023-03-14T01:20:47.216Z,0.57
2023-03-14T01:23:30.058Z,0.55
2023-03-14T01:26:14.339Z,0.40
2023-03-14T01:28:57.700Z,2.53
2023-03-14T01:31:42.516Z,4.73
2023-03-14T01:34:25.372Z,3.72
2023-03-14T01:37:09.000Z,1.80
2023-03-14T01:39:53.304Z,1.00
2023-03-14T01:42:36.647Z,1.50
2023-03-14T01:45:56.881Z,1.10
2023-03-14T01:48:45.736Z,1.00
2023-03-14T01:51:34.512Z,1.30
2023-03-14T01:54:23.163Z,2.10
2023-03-14T01:57:10.536Z,1.50
2023-03-14T01:59:57.069Z,4.80
2023-03-14T02:02:44.144Z,5.40
2023-03-14T02:05:33.433Z,3.00
2023-03-14T02:08:25.321Z,1.65
2023-03-14T02:11:12.316Z,1.00
2023-03-14T02:14:25.648Z,1.50
2023-03-14T02:17:22.417Z,1.27
2023-03-14T02:20:31.122Z,1.65
2023-03-14T02:23:18.817Z,1.10
2023-03-14T02:26:07.119Z,0.60
2023-03-14T02:28:54.195Z,0.60
2023-03-14T02:31:37.600Z,0.43
2023-03-14T02:34:20.429Z,0.50
2023-03-14T02:37:03.665Z,0.30
2023-03-14T02:39:50.063Z,0.40
2023-03-14T02:42:33.761Z,0.32
2023-03-14T02:48:23.866Z,0.32
2023-03-14T02:51:07.236Z,0.50
2023-03-14T02:53:50.097Z,0.40
2023-03-14T02:56:33.374Z,0.88
2023-03-14T02:59:17.938Z,0.50
2023-03-14T03:02:12.726Z,0.43
2023-03-14T03:04:55.602Z,0.45
2023-03-14T03:07:38.544Z,0.60
2023-03-14T03:10:21.452Z,0.50
2023-03-14T03:13:04.606Z,0.50
2023-03-14T03:15:47.762Z,0.55
2023-03-14T03:18:32.080Z,0.35
2023-03-14T03:21:17.092Z,0.50
2023-03-14T03:23:59.880Z,0.40
2023-03-14T03:26:42.636Z,0.40
2023-03-14T03:29:27.146Z,0.50
2023-03-14T03:32:10.714Z,0.45
2023-03-14T03:34:54.951Z,0.65
2023-03-14T03:37:37.874Z,0.50
2023-03-14T03:43:05.733Z,0.80
2023-03-14T03:45:52.567Z,0.70
2023-03-14T03:48:37.819Z,0.60
2023-03-14T03:51:23.437Z,0.60
2023-03-14T03:54:06.401Z,0.60
2023-03-14T03:56:50.065Z,0.53
2023-03-14T03:59:32.822Z,0.50
2023-03-14T04:02:15.610Z,0.50
2023-03-14T04:04:58.662Z,0.50
2023-03-14T04:07:43.028Z,0.30
2023-03-14T04:10:26.340Z,0.40
2023-03-14T04:13:22.140Z,0.20
2023-03-14T04:16:17.278Z,0.20
2023-03-14T04:19:00.255Z,0.17
2023-03-14T04:21:45.877Z,0.20
2023-03-14T04:24:30.719Z,0.38
2023-03-14T04:27:15.646Z,0.38
2023-03-14T04:29:59.766Z,0.20
2023-03-14T04:33:20.666Z,0.30
2023-03-14T04:36:09.593Z,0.50
2023-03-14T04:38:52.600Z,0.30
2023-03-14T04:41:38.414Z,0.35
2023-03-14T04:44:22.523Z,0.35
2023-03-14T04:47:09.232Z,0.30
2023-03-14T04:49:52.873Z,0.30
2023-03-14T04:52:36.265Z,0.40
2023-03-14T04:55:19.621Z,0.40
2023-03-14T04:58:03.920Z,0.32
2023-03-14T05:00:47.050Z,0.38
2023-03-14T05:03:50.072Z,0.20
2023-03-14T05:06:53.101Z,0.20
2023-03-14T05:09:54.853Z,0.35
2023-03-14T05:12:59.195Z,0.30
2023-03-14T05:16:07.892Z,0.30
2023-03-14T05:19:08.923Z,0.25
2023-03-14T05:22:10.162Z,0.50
2023-03-14T05:25:10.366Z,0.40
2023-03-14T05:28:04.975Z,0.38
2023-03-14T05:31:11.000Z,0.40
2023-03-14T05:34:05.142Z,0.20
2023-03-14T05:36:57.211Z,0.40
2023-03-14T05:40:07.732Z,0.50
2023-03-14T05:42:59.433Z,0.50
2023-03-14T05:46:00.474Z,0.40
2023-03-14T05:49:10.570Z,0.38
2023-03-14T05:52:02.288Z,0.55
2023-03-14T05:55:03.455Z,0.30
2023-03-14T05:57:51.994Z,0.35
2023-03-14T06:00:53.396Z,0.40
2023-03-14T06:03:50.045Z,0.30
2023-03-14T06:06:34.251Z,0.28
2023-03-14T06:09:17.647Z,0.30
2023-03-14T06:12:00.549Z,0.30
2023-03-14T06:14:46.998Z,2.08
2023-03-14T06:17:30.469Z,2.00
2023-03-14T06:20:20.850Z,1.60
2023-03-14T06:23:05.122Z,1.30
2023-03-14T06:25:48.157Z,1.88
2023-03-14T06:28:30.973Z,1.27
2023-03-14T06:31:16.804Z,1.50
2023-03-14T06:34:08.668Z,1.95
2023-03-14T06:36:51.562Z,2.50
2023-03-14T06:39:35.962Z,1.50
2023-03-14T06:42:28.512Z,1.40
2023-03-14T06:45:12.291Z,2.28
2023-03-14T06:47:55.151Z,2.30
2023-03-14T06:50:44.152Z,2.33
2023-03-14T06:53:27.048Z,2.97
2023-03-14T06:56:11.691Z,2.20
2023-03-14T06:58:54.510Z,2.97
2023-03-14T07:01:39.985Z,2.67
2023-03-14T07:04:26.536Z,1.58
2023-03-14T07:07:09.843Z,2.88
2023-03-14T07:09:53.045Z,2.30
2023-03-14T07:12:37.923Z,3.57
2023-03-14T07:15:20.982Z,1.70
2023-03-14T07:18:08.607Z,1.45
2023-03-14T07:20:51.708Z,2.50
2023-03-14T07:23:35.700Z,2.10
2023-03-14T07:26:18.761Z,2.03
2023-03-14T07:29:07.416Z,1.83
2023-03-14T07:31:50.474Z,1.10
2023-03-14T07:34:35.997Z,1.50
2023-03-14T07:37:18.825Z,1.45
2023-03-14T07:40:01.673Z,1.88
2023-03-14T07:42:47.566Z,1.50
2023-03-14T07:45:43.732Z,1.70
2023-03-14T07:48:28.608Z,1.48
2023-03-14T07:51:11.464Z,1.63
2023-03-14T07:53:54.259Z,1.67
2023-03-14T07:56:37.059Z,1.20
2023-03-14T07:59:19.842Z,2.28
2023-03-14T08:02:06.650Z,1.80
2023-03-14T08:04:49.808Z,2.85
2023-03-14T08:07:32.586Z,1.98
2023-03-14T08:10:22.894Z,1.70
2023-03-14T08:13:05.690Z,0.98
2023-03-14T08:15:50.020Z,1.23
2023-03-14T08:18:34.519Z,1.30
2023-03-14T08:21:17.343Z,1.27
2023-03-14T08:24:00.113Z,1.00
2023-03-14T08:26:42.893Z,1.25
2023-03-14T08:29:25.838Z,0.93
2023-03-14T08:32:08.643Z,1.00
2023-03-14T08:34:52.841Z,1.25
2023-03-14T08:37:36.281Z,0.93
2023-03-14T08:40:19.312Z,1.00
2023-03-14T08:43:02.160Z,1.10
2023-03-14T08:45:45.032Z,1.60
2023-03-14T08:48:28.174Z,0.75
2023-03-14T08:51:14.902Z,0.70
2023-03-14T08:53:58.248Z,0.70
2023-03-14T08:56:41.098Z,0.30
2023-03-14T08:59:24.030Z,0.40
2023-03-14T09:02:07.912Z,0.30
2023-03-14T09:04:52.458Z,0.40
2023-03-14T09:07:36.573Z,0.30
2023-03-14T09:10:19.354Z,0.30
2023-03-14T09:13:02.171Z,0.40
2023-03-14T09:15:44.962Z,0.30
2023-03-14T09:18:27.744Z,0.30
2023-03-14T09:21:10.526Z,0.30
2023-03-14T09:23:54.746Z,0.30
2023-03-14T09:26:37.690Z,0.35
2023-03-14T09:29:21.107Z,0.40
2023-03-14T09:32:04.381Z,0.40
2023-03-14T09:34:47.299Z,0.30
2023-03-14T09:37:30.084Z,0.30
2023-03-14T09:40:17.172Z,0.30
2023-03-14T09:43:00.670Z,0.30
2023-03-14T09:45:46.630Z,0.40
2023-03-14T09:48:34.017Z,0.45
2023-03-14T09:51:20.035Z,0.43
2023-03-14T09:54:03.669Z,0.40
2023-03-14T09:56:48.028Z,0.30
2023-03-14T09:59:31.808Z,1.25
2023-03-14T10:02:19.424Z,0.68
2023-03-14T10:05:06.778Z,0.70
2023-03-14T10:07:49.834Z,0.47
2023-03-14T10:10:33.525Z,0.50
2023-03-14T10:13:20.514Z,1.20
2023-03-14T10:16:07.238Z,1.48
2023-03-14T10:18:50.042Z,1.30
2023-03-14T10:21:37.209Z,1.58
2023-03-14T10:24:22.698Z,1.42
2023-03-14T10:27:07.587Z,0.80
2023-03-14T10:29:59.587Z,0.40
2023-03-14T10:32:47.903Z,0.50
2023-03-14T10:35:36.221Z,0.50
2023-03-14T10:38:19.840Z,0.80
2023-03-14T10:41:03.351Z,0.50
2023-03-14T10:43:46.700Z,0.50
2023-03-14T10:46:34.381Z,0.60
2023-03-14T10:49:37.531Z,0.65
2023-03-14T10:52:30.817Z,0.88
2023-03-14T10:55:18.773Z,1.05
2023-03-14T10:58:01.586Z,1.50
2023-03-14T11:00:45.006Z,1.40
2023-03-14T11:03:34.002Z,1.00
2023-03-14T11:06:23.012Z,1.05
2023-03-14T11:09:16.120Z,0.80
2023-03-14T11:12:10.625Z,0.77
2023-03-14T11:14:59.498Z,1.23
2023-03-14T11:17:53.310Z,2.30
2023-03-14T11:20:45.201Z,2.00
2023-03-14T11:23:38.712Z,1.80
2023-03-14T11:26:31.528Z,1.40
2023-03-14T11:29:23.118Z,1.52
2023-03-14T11:32:14.776Z,1.70
2023-03-14T11:35:01.616Z,3.17
2023-03-14T11:37:49.255Z,2.10
2023-03-14T11:40:35.246Z,1.85
2023-03-14T11:43:27.364Z,2.53
2023-03-14T11:46:16.621Z,2.15
2023-03-14T11:49:05.900Z,2.60
2023-03-14T11:51:52.685Z,1.52
2023-03-14T11:54:46.625Z,1.42
2023-03-14T11:57:29.381Z,1.20
2023-03-14T12:00:18.268Z,1.20
2023-03-14T12:03:06.127Z,3.00
2023-03-14T12:05:57.771Z,2.08
2023-03-14T12:08:46.989Z,1.40
2023-03-14T12:11:40.005Z,1.00
2023-03-14T12:14:26.789Z,0.90
2023-03-14T12:17:22.039Z,1.33
2023-03-14T12:20:08.513Z,1.77
2023-03-14T12:22:53.702Z,2.42
2023-03-14T12:25:36.985Z,2.03
2023-03-14T12:28:22.955Z,3.72
2023-03-14T12:31:44.633Z,1.63
2023-03-14T12:34:30.981Z,1.80
2023-03-14T12:37:28.497Z,1.17
2023-03-14T12:40:19.767Z,1.00
2023-03-14T12:43:04.271Z,0.90
2023-03-14T12:46:09.979Z,0.80
2023-03-14T12:48:57.670Z,0.63
2023-03-14T12:51:44.620Z,0.73
2023-03-14T12:54:42.914Z,0.63
2023-03-14T12:57:30.116Z,0.70
2023-03-14T13:00:22.448Z,0.75
2023-03-14T13:03:19.566Z,1.08
2023-03-14T13:06:05.402Z,0.90
2023-03-14T13:08:48.356Z,0.60
2023-03-14T13:11:35.450Z,0.50
2023-03-14T13:14:18.433Z,0.60
2023-03-14T13:17:19.456Z,0.55
2023-03-14T13:20:14.902Z,1.05
2023-03-14T13:22:57.718Z,1.00
2023-03-14T13:25:40.860Z,1.20
2023-03-14T13:28:24.020Z,1.17
2023-03-14T13:31:20.414Z,1.50
2023-03-14T13:34:06.948Z,1.20
2023-03-14T13:36:54.594Z,1.20
2023-03-14T13:39:41.848Z,2.85
2023-03-14T13:42:28.264Z,1.33
2023-03-14T13:45:16.514Z,1.00
2023-03-14T13:48:01.851Z,0.50
2023-03-14T13:51:04.176Z,0.60
2023-03-14T13:53:50.119Z,0.93
2023-03-14T13:56:34.610Z,0.98
2023-03-14T13:59:24.759Z,0.80
2023-03-14T14:02:18.355Z,0.60
2023-03-14T14:05:02.010Z,0.95
2023-03-14T14:07:46.476Z,0.80
2023-03-14T14:10:31.868Z,0.60
2023-03-14T14:13:20.053Z,0.80
2023-03-14T14:16:05.622Z,0.75
2023-03-14T14:18:48.802Z,0.73
2023-03-14T14:21:32.716Z,1.30
2023-03-14T14:24:16.738Z,1.80
2023-03-14T14:27:10.370Z,1.00
2023-03-14T14:30:03.029Z,1.10
2023-03-14T14:32:47.384Z,1.38
2023-03-14T14:35:35.299Z,0.98
2023-03-14T14:38:19.554Z,1.88
2023-03-14T14:41:04.515Z,2.40
2023-03-14T14:43:48.878Z,2.00
2023-03-14T14:46:34.166Z,1.73
2023-03-14T14:49:20.755Z,3.20
2023-03-14T14:52:06.531Z,1.67
2023-03-14T14:54:55.552Z,1.38
2023-03-14T14:57:41.465Z,2.42
2023-03-14T15:00:28.661Z,3.47
2023-03-14T15:03:17.038Z,2.15
2023-03-14T15:06:00.144Z,1.70
2023-03-14T15:08:45.237Z,1.30
2023-03-14T15:11:28.832Z,1.80
2023-03-14T15:14:11.831Z,2.20
2023-03-14T15:16:55.950Z,3.47
2023-03-14T15:19:38.959Z,2.40
2023-03-14T15:22:21.708Z,2.05
2023-03-14T15:25:04.565Z,1.10
2023-03-14T15:27:47.364Z,0.80
2023-03-14T15:30:30.117Z,0.95
2023-03-14T15:33:14.245Z,0.70
2023-03-14T15:35:58.231Z,0.50
2023-03-14T15:38:41.084Z,0.82
2023-03-14T15:41:25.000Z,0.77
2023-03-14T15:44:07.764Z,0.43
2023-03-14T15:46:50.580Z,0.52
2023-03-14T15:49:34.777Z,0.40
2023-03-14T15:52:17.551Z,0.32
2023-03-14T15:55:01.159Z,0.30
2023-03-14T15:57:45.547Z,0.50
2023-03-14T16:00:28.395Z,0.30
2023-03-14T16:03:11.820Z,0.20
2023-03-14T16:05:56.288Z,0.30
2023-03-14T16:08:39.089Z,0.20
2023-03-14T16:11:23.037Z,0.30
2023-03-14T16:14:05.998Z,0.35
2023-03-14T16:16:48.837Z,0.20
2023-03-14T16:19:32.024Z,0.30
2023-03-14T16:22:16.127Z,0.20
2023-03-14T16:24:58.894Z,0.20
2023-03-14T16:27:42.713Z,0.30
2023-03-14T16:30:25.558Z,0.20
2023-03-14T16:33:12.469Z,0.30
2023-03-14T16:35:56.436Z,0.30
2023-03-14T16:38:42.372Z,0.20
2023-03-14T16:41:25.209Z,0.20
2023-03-14T16:44:07.972Z,0.30
2023-03-14T16:46:50.944Z,0.30
2023-03-14T16:49:33.766Z,0.20
2023-03-14T16:52:16.546Z,0.30
2023-03-14T16:55:00.631Z,0.40
2023-03-14T16:57:43.347Z,0.40
2023-03-14T17:00:26.407Z,0.47
2023-03-14T17:03:12.349Z,0.70
2023-03-14T17:05:55.210Z,0.57
2023-03-14T17:08:37.984Z,0.70
2023-03-14T17:11:22.721Z,0.85
2023-03-14T17:14:06.589Z,1.05
2023-03-14T17:16:50.758Z,0.90
2023-03-14T17:19:34.857Z,0.90
2023-03-14T17:22:28.641Z,0.88
2023-03-14T17:25:14.097Z,1.08
2023-03-14T17:27:58.221Z,1.00
2023-03-14T17:30:41.079Z,1.60
2023-03-14T17:33:23.923Z,1.30
2023-03-14T17:36:08.120Z,0.90
2023-03-14T17:38:50.951Z,1.20
2023-03-14T17:41:33.732Z,1.08
2023-03-14T17:44:17.847Z,4.68
2023-03-14T17:47:01.181Z,1.63
2023-03-14T17:49:43.953Z,2.30
2023-03-14T17:52:26.742Z,1.30
2023-03-14T17:55:12.041Z,1.00
2023-03-14T17:57:54.825Z,1.88
2023-03-14T18:00:39.027Z,2.42
2023-03-14T18:03:22.405Z,1.00
2023-03-14T18:06:06.884Z,1.30
2023-03-14T18:08:51.451Z,1.17
2023-03-14T18:11:34.229Z,1.00
2023-03-14T18:14:17.000Z,1.20
2023-03-14T18:17:01.216Z,0.85
2023-03-14T18:19:44.307Z,1.13
2023-03-14T18:22:27.097Z,1.50
2023-03-14T18:25:11.788Z,1.00
2023-03-14T18:27:54.572Z,0.90
2023-03-14T18:30:37.330Z,0.80
2023-03-14T18:33:23.066Z,0.80
2023-03-14T18:36:06.753Z,0.73
2023-03-14T18:38:50.802Z,0.90
2023-03-14T18:41:34.876Z,0.50
2023-03-14T18:44:17.676Z,0.60
2023-03-14T18:47:00.556Z,0.47
2023-03-14T18:49:44.746Z,0.52
2023-03-14T18:52:28.399Z,0.75
2023-03-14T18:55:11.928Z,0.50
2023-03-14T18:57:54.740Z,0.50
2023-03-14T19:00:38.232Z,0.60
2023-03-14T19:03:21.085Z,0.50
2023-03-14T19:06:06.767Z,0.60
2023-03-14T19:08:49.546Z,0.47
2023-03-14T19:11:32.410Z,0.55
2023-03-14T19:14:17.698Z,0.52
2023-03-14T19:17:00.749Z,0.77
2023-03-14T19:19:43.527Z,0.50
2023-03-14T19:22:27.650Z,0.50
2023-03-14T19:25:11.273Z,0.50
2023-03-14T19:27:54.067Z,0.50
2023-03-14T19:30:36.916Z,0.52
2023-03-14T19:33:20.857Z,7.88
2023-03-14T19:36:03.665Z,3.83
2023-03-14T19:38:47.990Z,1.38
2023-03-14T19:41:32.008Z,0.80
2023-03-14T19:44:14.755Z,0.60
2023-03-14T19:46:57.573Z,0.70
2023-03-14T19:49:40.343Z,0.70
2023-03-14T19:52:23.096Z,0.50
2023-03-14T19:55:07.717Z,0.70
2023-03-14T19:57:52.025Z,0.60
2023-03-14T20:00:34.826Z,0.50
2023-03-14T20:03:17.589Z,0.65
2023-03-14T20:06:02.211Z,0.50
2023-03-14T20:08:45.411Z,0.50
2023-03-14T20:11:29.529Z,0.40
2023-03-14T20:14:13.284Z,0.50
2023-03-14T20:16:56.322Z,1.00
2023-03-14T20:19:39.118Z,0.60
2023-03-14T20:22:21.921Z,0.50
2023-03-14T20:25:05.486Z,0.60
2023-03-14T20:27:51.909Z,0.60
2023-03-14T20:30:35.131Z,0.60
2023-03-14T20:33:19.853Z,0.40
2023-03-14T20:36:02.784Z,1.48
2023-03-14T20:38:45.596Z,0.70
2023-03-14T20:41:28.647Z,0.50
2023-03-14T20:44:13.470Z,0.50
2023-03-14T20:46:57.689Z,0.60
2023-03-14T20:49:40.664Z,0.70
2023-03-14T20:52:23.619Z,0.60
2023-03-14T20:55:07.435Z,0.60
2023-03-14T20:57:51.076Z,0.80
2023-03-14T21:00:35.165Z,0.52
2023-03-14T21:03:19.006Z,0.60
2023-03-14T21:06:01.753Z,0.80
2023-03-14T21:08:44.537Z,2.20
2023-03-14T21:11:27.380Z,1.00
2023-03-14T21:14:10.131Z,1.30
2023-03-14T21:16:55.715Z,0.60
2023-03-14T21:19:40.701Z,0.50
2023-03-14T21:22:23.435Z,0.50
2023-03-14T21:25:07.748Z,1.05
2023-03-14T21:27:51.850Z,0.70
2023-03-14T21:30:36.314Z,0.50
2023-03-14T21:33:20.510Z,0.50
2023-03-14T21:36:03.320Z,0.50
2023-03-14T21:38:46.107Z,0.50
2023-03-14T21:41:28.864Z,0.45
2023-03-14T21:44:15.668Z,0.60
2023-03-14T21:46:58.403Z,0.80
2023-03-14T21:49:44.922Z,0.40
2023-03-14T21:52:27.867Z,0.52
2023-03-14T21:55:11.586Z,0.88
2023-03-14T21:57:56.082Z,1.33
2023-03-14T22:00:38.826Z,0.75
2023-03-14T22:03:23.814Z,0.90
2023-03-14T22:06:08.815Z,0.50
2023-03-14T22:08:51.658Z,2.13
2023-03-14T22:11:34.407Z,2.38
2023-03-14T22:14:17.178Z,1.48
2023-03-14T22:17:00.063Z,1.25
2023-03-14T22:19:42.895Z,1.00
2023-03-14T22:22:27.633Z,1.75
2023-03-14T22:25:10.737Z,1.13
2023-03-14T22:27:53.593Z,1.25
2023-03-14T22:30:36.967Z,0.80
2023-03-14T22:33:20.477Z,0.68
2023-03-14T22:36:03.320Z,1.20
2023-03-14T22:38:47.469Z,0.60
2023-03-14T22:41:30.270Z,1.20
2023-03-14T22:44:13.052Z,0.98
2023-03-14T22:46:55.780Z,0.70
2023-03-14T22:49:38.558Z,0.60
2023-03-14T22:52:21.299Z,0.60
2023-03-14T22:55:06.139Z,0.60
2023-03-14T22:57:53.470Z,0.50
2023-03-14T23:00:36.244Z,0.40
2023-03-14T23:03:19.222Z,0.50
2023-03-14T23:06:02.051Z,0.60
2023-03-14T23:08:45.093Z,0.68
2023-03-14T23:11:29.314Z,0.50
2023-03-14T23:14:12.157Z,0.40
2023-03-14T23:16:55.803Z,0.40
2023-03-14T23:19:39.621Z,0.60
2023-03-14T23:22:22.490Z,0.40
2023-03-14T23:25:05.828Z,0.32
2023-03-14T23:27:50.052Z,0.40
2023-03-14T23:30:32.921Z,0.40
2023-03-14T23:33:15.963Z,0.70
2023-03-14T23:35:58.856Z,0.50
2023-03-14T23:38:42.382Z,1.13
2023-03-14T23:41:25.223Z,0.75
2023-03-14T23:44:13.209Z,0.57
2023-03-14T23:46:56.025Z,0.45
2023-03-14T23:49:38.836Z,0.40
2023-03-14T23:52:21.631Z,0.22
2023-03-14T23:55:04.660Z,0.25
2023-03-14T23:57:47.735Z,0.40
